createdAt,value
2023-01-09T00:01:12.306Z,57.17
2023-01-09T00:03:39.136Z,57.05
2023-01-09T00:06:06.166Z,56.86
2023-01-09T00:08:33.003Z,57.00
2023-01-09T00:10:59.902Z,57.21
2023-01-09T00:13:26.792Z,57.40
2023-01-09T00:15:53.592Z,57.24
2023-01-09T00:18:20.471Z,57.35
2023-01-09T00:20:47.293Z,57.51
2023-01-09T00:23:14.112Z,57.49
2023-01-09T00:28:25.680Z,57.47
2023-01-09T00:30:57.699Z,57.55
2023-01-09T00:33:33.591Z,57.43
2023-01-09T00:36:00.647Z,57.55
2023-01-09T00:38:27.602Z,57.62
2023-01-09T00:40:55.684Z,57.71
2023-01-09T00:43:26.947Z,57.73
2023-01-09T00:45:53.856Z,57.58
2023-01-09T00:48:27.018Z,57.72
2023-01-09T00:50:58.040Z,57.83
2023-01-09T00:53:29.515Z,57.55
2023-01-09T00:56:00.365Z,57.67
2023-01-09T00:58:27.298Z,57.75
2023-01-09T01:00:54.473Z,57.91
2023-01-09T01:03:21.381Z,58.20
2023-01-09T01:06:06.807Z,58.26
2023-01-09T01:08:33.610Z,58.29
2023-01-09T01:11:05.520Z,58.33
2023-01-09T01:13:32.414Z,58.25
2023-01-09T01:15:59.241Z,58.10
2023-01-09T01:18:26.125Z,58.15
2023-01-09T01:20:53.043Z,58.33
2023-01-09T01:23:19.855Z,58.48
2023-01-09T01:25:46.951Z,58.48
2023-01-09T01:28:14.005Z,58.49
2023-01-09T01:30:42.295Z,58.32
2023-01-09T01:33:10.636Z,58.16
2023-01-09T01:35:38.079Z,58.51
2023-01-09T01:38:05.327Z,58.60
2023-01-09T01:40:32.892Z,58.72
2023-01-09T01:42:59.736Z,58.86
2023-01-09T01:45:29.155Z,58.91
2023-01-09T01:48:02.409Z,59.07
2023-01-09T01:50:34.922Z,58.90
2023-01-09T01:53:04.199Z,58.58
2023-01-09T01:55:33.764Z,58.66
2023-01-09T01:58:04.443Z,58.85
2023-01-09T02:00:35.457Z,58.78
2023-01-09T02:03:03.105Z,58.85
2023-01-09T02:05:30.799Z,58.97
2023-01-09T02:07:57.731Z,58.91
2023-01-09T02:10:25.760Z,58.63
2023-01-09T02:12:52.692Z,58.63
2023-01-09T02:15:20.810Z,58.51
2023-01-09T02:17:56.682Z,58.55
2023-01-09T02:20:47.801Z,58.40
2023-01-09T02:23:33.086Z,58.15
2023-01-09T02:26:27.340Z,58.33
2023-01-09T02:29:25.178Z,58.03
2023-01-09T02:32:10.104Z,58.21
2023-01-09T02:34:48.734Z,58.51
2023-01-09T02:37:33.946Z,58.77
2023-01-09T02:40:16.417Z,58.95
2023-01-09T02:42:45.866Z,59.08
2023-01-09T02:45:12.675Z,58.88
2023-01-09T02:47:44.135Z,59.19
2023-01-09T02:50:21.330Z,59.18
2023-01-09T02:53:09.855Z,59.35
2023-01-09T02:56:15.773Z,59.20
2023-01-09T02:58:51.706Z,59.33
2023-01-09T03:01:21.425Z,59.42
2023-01-09T03:04:21.482Z,59.39
2023-01-09T03:07:02.976Z,59.28
2023-01-09T03:09:34.494Z,59.08
2023-01-09T03:12:09.575Z,59.06
2023-01-09T03:14:42.521Z,59.12
2023-01-09T03:17:14.212Z,59.23
2023-01-09T03:19:42.930Z,59.26
2023-01-09T03:22:09.794Z,59.42
2023-01-09T03:24:38.953Z,59.67
2023-01-09T03:27:08.474Z,59.75
2023-01-09T03:29:35.933Z,59.71
2023-01-09T03:32:02.710Z,59.65
2023-01-09T03:34:29.538Z,59.34
2023-01-09T03:36:56.354Z,59.11
2023-01-09T03:39:23.204Z,58.93
2023-01-09T03:41:50.134Z,58.93
2023-01-09T03:44:17.072Z,59.03
2023-01-09T03:46:43.946Z,59.02
2023-01-09T03:49:10.852Z,59.10
2023-01-09T03:51:37.759Z,59.02
2023-01-09T03:54:04.688Z,59.26
2023-01-09T03:56:31.488Z,59.21
2023-01-09T03:58:58.331Z,59.00
2023-01-09T04:01:25.292Z,59.02
2023-01-09T04:03:52.292Z,59.13
2023-01-09T04:06:19.221Z,59.05
2023-01-09T04:08:46.580Z,58.82
2023-01-09T04:11:13.427Z,59.02
2023-01-09T04:13:40.397Z,59.24
2023-01-09T04:16:07.555Z,59.43
2023-01-09T04:18:34.394Z,59.38
2023-01-09T04:21:01.233Z,59.34
2023-01-09T04:23:28.030Z,59.23
2023-01-09T04:25:54.818Z,59.50
2023-01-09T04:28:21.638Z,59.75
2023-01-09T04:30:48.443Z,59.74
2023-01-09T04:33:15.202Z,59.54
2023-01-09T04:35:42.035Z,59.47
2023-01-09T04:38:08.905Z,59.29
2023-01-09T04:40:35.731Z,59.01
2023-01-09T04:43:02.519Z,59.01
2023-01-09T04:45:29.482Z,58.79
2023-01-09T04:47:56.444Z,59.11
2023-01-09T04:50:23.329Z,59.55
2023-01-09T04:52:50.090Z,59.64
2023-01-09T04:55:17.032Z,59.56
2023-01-09T04:57:43.887Z,59.52
2023-01-09T05:00:12.498Z,59.55
2023-01-09T05:02:39.763Z,59.76
2023-01-09T05:05:11.155Z,59.52
2023-01-09T05:07:38.430Z,59.04
2023-01-09T05:10:06.045Z,59.26
2023-01-09T05:12:34.783Z,59.05
2023-01-09T05:15:01.950Z,58.76
2023-01-09T05:17:29.259Z,58.63
2023-01-09T05:20:16.215Z,58.74
2023-01-09T05:22:42.950Z,59.02
2023-01-09T05:25:10.201Z,59.16
2023-01-09T05:27:37.053Z,59.32
2023-01-09T05:30:04.272Z,59.23
2023-01-09T05:32:31.090Z,59.18
2023-01-09T05:34:58.187Z,59.25
2023-01-09T05:37:25.021Z,59.13
2023-01-09T05:39:51.832Z,59.26
2023-01-09T05:42:18.658Z,59.36
2023-01-09T05:44:45.473Z,59.45
2023-01-09T05:47:12.299Z,59.41
2023-01-09T05:49:39.269Z,59.23
2023-01-09T05:52:06.465Z,59.49
2023-01-09T05:54:33.326Z,59.55
2023-01-09T05:57:00.137Z,59.26
2023-01-09T05:59:27.070Z,59.36
2023-01-09T06:01:54.472Z,59.26
2023-01-09T06:04:21.834Z,59.33
2023-01-09T06:06:48.758Z,59.48
2023-01-09T06:09:15.654Z,59.67
2023-01-09T06:11:42.508Z,59.77
2023-01-09T06:14:09.403Z,59.80
2023-01-09T06:16:36.289Z,59.51
2023-01-09T06:19:03.155Z,59.73
2023-01-09T06:21:30.161Z,59.67
2023-01-09T06:23:56.997Z,59.77
2023-01-09T06:26:24.832Z,59.95
2023-01-09T06:28:51.769Z,59.98
2023-01-09T06:31:18.627Z,59.87
2023-01-09T06:33:45.512Z,59.74
2023-01-09T06:36:12.295Z,59.72
2023-01-09T06:38:39.168Z,59.33
2023-01-09T06:41:06.353Z,58.70
2023-01-09T06:43:33.170Z,58.33
2023-01-09T06:46:00.127Z,57.46
2023-01-09T06:48:27.063Z,56.57
2023-01-09T06:50:54.667Z,55.97
2023-01-09T06:53:21.539Z,55.08
2023-01-09T06:55:48.450Z,54.66
2023-01-09T06:58:15.355Z,54.28
2023-01-09T07:00:42.478Z,53.74
2023-01-09T07:03:10.302Z,53.03
2023-01-09T07:05:42.633Z,52.48
2023-01-09T07:08:09.679Z,52.19
2023-01-09T07:10:36.903Z,51.58
2023-01-09T07:13:03.803Z,50.83
2023-01-09T07:15:30.757Z,49.95
2023-01-09T07:17:57.674Z,49.42
2023-01-09T07:20:24.542Z,48.79
2023-01-09T07:22:51.596Z,48.15
2023-01-09T07:25:18.502Z,47.46
2023-01-09T07:27:45.481Z,46.76
2023-01-09T07:30:12.993Z,46.27
2023-01-09T07:32:41.146Z,45.96
2023-01-09T07:35:10.300Z,45.79
2023-01-09T07:37:37.258Z,45.04
2023-01-09T07:40:04.768Z,44.02
2023-01-09T07:42:31.597Z,43.23
2023-01-09T07:44:58.568Z,42.78
2023-01-09T07:47:25.356Z,42.06
2023-01-09T07:49:52.314Z,41.15
2023-01-09T07:52:19.148Z,40.33
2023-01-09T07:54:45.989Z,40.32
2023-01-09T07:57:12.847Z,40.70
2023-01-09T07:59:39.819Z,41.05
2023-01-09T08:02:07.332Z,41.19
2023-01-09T08:04:34.301Z,41.60
2023-01-09T08:07:03.352Z,42.10
2023-01-09T08:09:30.818Z,42.54
2023-01-09T08:11:57.825Z,42.40
2023-01-09T08:14:24.727Z,42.44
2023-01-09T08:16:51.572Z,42.70
2023-01-09T08:19:18.356Z,43.01
2023-01-09T08:21:45.155Z,43.33
2023-01-09T08:24:12.049Z,43.39
2023-01-09T08:26:38.946Z,43.52
2023-01-09T08:29:06.770Z,43.59
2023-01-09T08:31:33.657Z,43.75
2023-01-09T08:34:00.564Z,44.09
2023-01-09T08:36:27.663Z,44.33
2023-01-09T08:38:55.661Z,44.30
2023-01-09T08:41:41.085Z,44.48
2023-01-09T08:44:26.814Z,44.30
2023-01-09T08:47:05.747Z,43.09
2023-01-09T08:49:38.164Z,42.27
2023-01-09T08:52:06.727Z,40.73
2023-01-09T08:54:34.169Z,39.23
2023-01-09T08:57:00.969Z,38.33
2023-01-09T08:59:28.589Z,37.47
2023-01-09T09:01:55.639Z,36.17
2023-01-09T09:04:22.480Z,35.80
2023-01-09T09:06:49.492Z,35.35
2023-01-09T09:09:16.484Z,35.26
2023-01-09T09:11:43.590Z,35.08
2023-01-09T09:14:29.066Z,34.94
2023-01-09T09:16:55.932Z,35.07
2023-01-09T09:19:22.962Z,35.54
2023-01-09T09:21:49.810Z,35.67
2023-01-09T09:24:16.653Z,35.85
2023-01-09T09:26:44.696Z,36.29
2023-01-09T09:29:12.134Z,36.68
2023-01-09T09:31:39.312Z,36.79
2023-01-09T09:34:13.440Z,37.02
2023-01-09T09:36:40.294Z,37.49
2023-01-09T09:39:07.579Z,37.61
2023-01-09T09:42:20.503Z,37.72
2023-01-09T09:44:53.958Z,37.24
2023-01-09T09:47:29.681Z,38.07
2023-01-09T09:50:09.466Z,38.78
2023-01-09T09:52:48.751Z,39.37
2023-01-09T09:55:32.398Z,39.75
2023-01-09T09:58:03.640Z,39.74
2023-01-09T10:00:31.121Z,39.82
2023-01-09T10:02:58.152Z,40.50
2023-01-09T10:05:30.175Z,40.64
2023-01-09T10:08:14.834Z,40.81
2023-01-09T10:10:53.314Z,40.95
2023-01-09T10:13:43.573Z,41.04
2023-01-09T10:16:32.375Z,40.85
2023-01-09T10:19:22.746Z,40.94
2023-01-09T10:21:58.802Z,41.39
2023-01-09T10:24:42.311Z,41.57
2023-01-09T10:27:33.339Z,42.11
2023-01-09T10:30:08.458Z,42.87
2023-01-09T10:32:40.812Z,43.28
2023-01-09T10:35:23.088Z,43.55
2023-01-09T10:37:53.401Z,44.06
2023-01-09T10:40:35.654Z,44.00
2023-01-09T10:43:26.638Z,44.08
2023-01-09T10:48:55.585Z,44.14
2023-01-09T10:55:39.935Z,44.55
2023-01-09T10:58:13.929Z,44.58
2023-01-09T11:00:41.617Z,44.62
2023-01-09T11:03:16.843Z,44.68
2023-01-09T11:05:44.710Z,44.67
2023-01-09T11:08:23.422Z,44.82
2023-01-09T11:10:53.791Z,44.99
2023-01-09T11:13:35.304Z,45.26
2023-01-09T11:16:10.997Z,45.50
2023-01-09T11:18:47.857Z,45.85
2023-01-09T11:21:31.051Z,46.08
2023-01-09T11:24:27.891Z,46.21
2023-01-09T11:27:14.800Z,46.35
2023-01-09T11:29:42.733Z,46.45
2023-01-09T11:32:23.649Z,46.58
2023-01-09T11:34:51.147Z,46.62
2023-01-09T11:37:27.844Z,46.64
2023-01-09T11:39:56.654Z,46.53
2023-01-09T11:42:48.151Z,46.57
2023-01-09T11:45:20.900Z,46.52
2023-01-09T11:47:47.870Z,46.53
2023-01-09T11:50:25.286Z,46.63
2023-01-09T11:53:15.244Z,46.73
2023-01-09T11:55:43.550Z,46.77
2023-01-09T11:58:15.234Z,46.90
2023-01-09T12:01:11.149Z,46.97
2023-01-09T12:04:15.274Z,47.07
2023-01-09T12:06:53.973Z,47.27
2023-01-09T12:09:44.105Z,47.50
2023-01-09T12:12:35.493Z,47.56
2023-01-09T12:15:10.021Z,47.77
2023-01-09T12:17:45.204Z,47.90
2023-01-09T12:20:53.378Z,48.05
2023-01-09T12:23:38.936Z,48.14
2023-01-09T12:26:24.442Z,48.25
2023-01-09T12:29:09.252Z,48.27
2023-01-09T12:31:42.206Z,48.37
2023-01-09T12:34:27.844Z,48.33
2023-01-09T12:37:25.142Z,48.25
2023-01-09T12:39:54.927Z,48.32
2023-01-09T12:42:57.779Z,48.29
2023-01-09T12:45:36.548Z,48.62
2023-01-09T12:48:40.335Z,48.58
2023-01-09T12:54:46.457Z,48.72
2023-01-09T13:00:07.583Z,48.94
2023-01-09T13:02:36.674Z,48.92
2023-01-09T13:05:15.905Z,48.79
2023-01-09T13:07:48.439Z,49.02
2023-01-09T13:10:33.310Z,49.06
2023-01-09T13:13:06.562Z,49.27
2023-01-09T13:15:39.763Z,49.44
2023-01-09T13:18:16.162Z,49.47
2023-01-09T13:20:50.589Z,49.72
2023-01-09T13:23:32.488Z,49.84
2023-01-09T13:26:06.525Z,49.78
2023-01-09T13:28:47.231Z,49.93
2023-01-09T13:31:28.174Z,49.97
2023-01-09T13:33:58.259Z,50.02
2023-01-09T13:36:31.416Z,50.10
2023-01-09T13:38:59.953Z,50.19
2023-01-09T13:41:47.877Z,50.12
2023-01-09T13:44:25.412Z,50.18
2023-01-09T13:46:55.134Z,50.38
2023-01-09T13:49:36.866Z,50.51
2023-01-09T13:52:22.282Z,50.66
2023-01-09T13:55:02.645Z,50.76
2023-01-09T13:57:35.146Z,50.79
2023-01-09T14:00:07.822Z,50.88
2023-01-09T14:02:38.549Z,50.93
2023-01-09T14:05:12.198Z,51.03
2023-01-09T14:07:41.462Z,51.14
2023-01-09T14:10:21.059Z,51.26
2023-01-09T14:12:48.477Z,51.92
2023-01-09T14:15:35.898Z,51.53
2023-01-09T14:18:04.989Z,51.49
2023-01-09T14:20:41.879Z,51.50
2023-01-09T14:23:42.115Z,51.63
2023-01-09T14:25:56.943Z,51.78
2023-01-09T14:28:28.819Z,51.85
2023-01-09T14:30:55.529Z,51.96
2023-01-09T14:33:23.625Z,52.07
2023-01-09T14:36:16.687Z,52.22
2023-01-09T14:38:50.458Z,52.24
2023-01-09T14:41:43.150Z,52.19
2023-01-09T14:44:38.798Z,52.32
2023-01-09T14:47:11.129Z,52.39
2023-01-09T14:49:43.786Z,52.47
2023-01-09T14:52:23.842Z,52.61
2023-01-09T14:54:52.325Z,52.74
2023-01-09T14:57:36.802Z,52.73
2023-01-09T15:00:16.011Z,52.79
2023-01-09T15:02:43.855Z,52.93
2023-01-09T15:05:18.518Z,52.92
2023-01-09T15:07:52.772Z,52.98
2023-01-09T15:10:23.390Z,53.18
2023-01-09T15:12:53.776Z,53.38
2023-01-09T15:15:22.617Z,53.41
2023-01-09T15:17:55.836Z,53.69
2023-01-09T15:20:31.471Z,53.72
2023-01-09T15:23:04.346Z,53.71
2023-01-09T15:25:38.787Z,53.82
2023-01-09T15:28:24.045Z,54.00
2023-01-09T15:30:58.346Z,54.27
2023-01-09T15:33:25.509Z,54.66
2023-01-09T15:35:55.143Z,54.57
2023-01-09T15:38:25.239Z,54.73
2023-01-09T15:40:59.222Z,54.82
2023-01-09T15:43:29.398Z,54.84
2023-01-09T15:45:57.109Z,54.82
2023-01-09T15:48:32.541Z,54.86
2023-01-09T15:51:17.021Z,54.92
2023-01-09T15:53:46.864Z,55.01
2023-01-09T15:56:24.146Z,55.06
2023-01-09T15:58:52.970Z,55.06
2023-01-09T16:01:33.954Z,55.18
2023-01-09T16:04:03.720Z,55.36
2023-01-09T16:06:33.082Z,55.43
2023-01-09T16:09:00.893Z,55.56
2023-01-09T16:11:32.239Z,55.48
2023-01-09T16:14:13.505Z,55.68
2023-01-09T16:16:41.481Z,55.74
2023-01-09T16:19:46.999Z,55.71
2023-01-09T16:22:30.128Z,55.81
2023-01-09T16:25:02.009Z,55.94
2023-01-09T16:27:36.061Z,56.12
2023-01-09T16:30:22.811Z,56.28
2023-01-09T16:32:52.799Z,56.44
2023-01-09T16:35:22.069Z,56.47
2023-01-09T16:37:49.119Z,56.49
2023-01-09T16:40:18.809Z,56.56
2023-01-09T16:43:01.022Z,56.74
2023-01-09T16:45:31.641Z,56.76
2023-01-09T16:47:59.155Z,56.78
2023-01-09T16:50:26.440Z,56.97
2023-01-09T16:52:53.418Z,57.01
2023-01-09T16:55:20.337Z,57.08
2023-01-09T16:57:47.543Z,57.15
2023-01-09T17:00:17.970Z,57.28
2023-01-09T17:02:45.619Z,57.17
2023-01-09T17:05:12.779Z,57.21
2023-01-09T17:07:39.839Z,57.23
2023-01-09T17:10:07.284Z,57.35
2023-01-09T17:12:34.059Z,57.46
2023-01-09T17:15:02.580Z,57.42
2023-01-09T17:17:29.517Z,57.28
2023-01-09T17:19:56.326Z,57.43
2023-01-09T17:22:23.227Z,57.39
2023-01-09T17:25:09.104Z,57.45
2023-01-09T17:27:55.899Z,57.38
2023-01-09T17:30:23.202Z,57.45
2023-01-09T17:32:52.420Z,57.55
2023-01-09T17:35:19.398Z,57.50
2023-01-09T17:37:46.339Z,57.64
2023-01-09T17:40:21.759Z,57.76
2023-01-09T17:42:48.741Z,57.90
2023-01-09T17:45:18.668Z,57.91
2023-01-09T17:47:45.631Z,57.98
2023-01-09T17:50:20.756Z,58.05
2023-01-09T17:52:51.369Z,58.17
2023-01-09T17:55:18.440Z,58.10
2023-01-09T17:57:46.028Z,58.17
2023-01-09T18:00:36.961Z,58.25
2023-01-09T18:03:05.384Z,58.31
2023-01-09T18:05:32.525Z,58.28
2023-01-09T18:07:59.669Z,58.48
2023-01-09T18:10:30.107Z,58.51
2023-01-09T18:12:57.123Z,58.66
2023-01-09T18:15:24.578Z,58.71
2023-01-09T18:17:52.334Z,59.03
2023-01-09T18:20:19.491Z,59.07
2023-01-09T18:22:47.768Z,59.18
2023-01-09T18:25:14.878Z,59.32
2023-01-09T18:27:41.867Z,59.24
2023-01-09T18:30:09.602Z,59.37
2023-01-09T18:32:37.203Z,59.38
2023-01-09T18:35:05.181Z,59.33
2023-01-09T18:37:32.623Z,59.35
2023-01-09T18:39:59.870Z,59.39
2023-01-09T18:42:29.056Z,59.44
2023-01-09T18:44:59.754Z,59.47
2023-01-09T18:47:26.644Z,59.36
2023-01-09T18:49:53.692Z,59.44
2023-01-09T18:52:20.685Z,59.57
2023-01-09T18:54:48.811Z,59.44
2023-01-09T18:57:15.753Z,59.44
2023-01-09T18:59:42.693Z,59.67
2023-01-09T19:02:20.184Z,59.71
2023-01-09T19:04:47.139Z,59.86
2023-01-09T19:07:14.312Z,60.00
2023-01-09T19:09:42.103Z,60.06
2023-01-09T19:12:10.835Z,60.01
2023-01-09T19:14:38.557Z,60.08
2023-01-09T19:17:05.751Z,60.08
2023-01-09T19:19:33.985Z,60.26
2023-01-09T19:22:00.932Z,60.30
2023-01-09T19:24:28.009Z,60.30
2023-01-09T19:26:55.085Z,60.60
2023-01-09T19:29:21.946Z,60.24
2023-01-09T19:31:49.064Z,60.60
2023-01-09T19:34:17.041Z,60.51
2023-01-09T19:36:44.814Z,60.64
2023-01-09T19:39:12.190Z,60.67
2023-01-09T19:41:39.735Z,60.69
2023-01-09T19:44:07.101Z,60.81
2023-01-09T19:46:59.127Z,60.82
2023-01-09T19:49:26.398Z,61.27
2023-01-09T19:51:55.919Z,61.49
2023-01-09T19:54:25.804Z,61.77
2023-01-09T19:56:56.841Z,61.89
2023-01-09T20:02:34.448Z,61.71
2023-01-09T20:05:01.409Z,61.49
2023-01-09T20:07:28.430Z,61.44
2023-01-09T20:09:56.141Z,61.45
2023-01-09T20:12:23.199Z,61.40
2023-01-09T20:14:50.151Z,61.48
2023-01-09T20:17:17.982Z,61.53
2023-01-09T20:19:45.622Z,61.50
2023-01-09T20:22:13.091Z,61.58
2023-01-09T20:24:40.360Z,61.62
2023-01-09T20:27:07.669Z,61.52
2023-01-09T20:29:34.706Z,61.57
2023-01-09T20:32:05.625Z,61.61
2023-01-09T20:34:32.629Z,61.67
2023-01-09T20:36:59.647Z,61.61
2023-01-09T20:39:26.656Z,61.70
2023-01-09T20:41:53.707Z,61.67
2023-01-09T20:44:20.791Z,61.81
2023-01-09T20:46:48.213Z,61.89
2023-01-09T20:49:18.410Z,61.86
2023-01-09T20:51:48.598Z,61.89
2023-01-09T20:54:18.770Z,61.88
2023-01-09T20:56:45.728Z,61.88
2023-01-09T20:59:17.947Z,62.04
2023-01-09T21:01:45.168Z,62.09
2023-01-09T21:04:12.187Z,62.26
2023-01-09T21:06:39.262Z,62.18
2023-01-09T21:09:06.756Z,62.29
2023-01-09T21:11:34.200Z,62.24
2023-01-09T21:14:01.113Z,62.15
2023-01-09T21:16:29.448Z,62.22
2023-01-09T21:18:56.461Z,62.18
2023-01-09T21:21:27.419Z,62.36
2023-01-09T21:23:57.619Z,62.47
2023-01-09T21:26:27.708Z,62.59
2023-01-09T21:28:56.947Z,62.57
2023-01-09T21:31:29.999Z,62.60
2023-01-09T21:33:57.055Z,62.50
2023-01-09T21:36:24.086Z,62.62
2023-01-09T21:38:54.296Z,62.69
2023-01-09T21:41:40.308Z,62.50
2023-01-09T21:44:30.610Z,62.66
2023-01-09T21:47:00.144Z,62.67
2023-01-09T21:49:29.702Z,62.74
2023-01-09T21:51:59.121Z,62.71
2023-01-09T21:54:26.505Z,62.76
2023-01-09T21:56:54.780Z,62.71
2023-01-09T21:59:21.866Z,62.72
2023-01-09T22:01:52.975Z,62.74
2023-01-09T22:04:22.457Z,62.66
2023-01-09T22:06:49.595Z,62.61
2023-01-09T22:09:16.676Z,62.46
2023-01-09T22:11:44.314Z,62.55
2023-01-09T22:14:16.390Z,62.53
2023-01-09T22:16:44.116Z,62.72
2023-01-09T22:19:18.534Z,62.60
2023-01-09T22:21:45.960Z,62.71
2023-01-09T22:24:14.837Z,62.59
2023-01-09T22:26:41.882Z,62.73
2023-01-09T22:29:08.767Z,62.94
2023-01-09T22:31:39.669Z,62.94
2023-01-09T22:34:06.937Z,62.96
2023-01-09T22:36:33.878Z,63.04
2023-01-09T22:39:01.425Z,63.05
2023-01-09T22:41:31.860Z,63.11
2023-01-09T22:43:59.194Z,63.11
2023-01-09T22:46:26.150Z,63.41
2023-01-09T22:48:53.114Z,63.34
2023-01-09T22:51:21.524Z,63.46
2023-01-09T22:53:48.890Z,63.76
2023-01-09T22:56:18.329Z,63.56
2023-01-09T22:58:49.317Z,63.67
2023-01-09T23:01:16.120Z,63.59
2023-01-09T23:03:43.016Z,63.58
2023-01-09T23:06:27.870Z,63.61
2023-01-09T23:08:54.764Z,63.69
2023-01-09T23:11:46.308Z,63.77
2023-01-09T23:14:13.453Z,63.71
2023-01-09T23:16:41.104Z,63.72
2023-01-09T23:19:09.942Z,63.74
2023-01-09T23:21:37.553Z,63.68
2023-01-09T23:24:07.030Z,63.84
2023-01-09T23:26:34.709Z,63.62
2023-01-09T23:29:02.196Z,63.65
2023-01-09T23:31:29.133Z,63.46
2023-01-09T23:33:56.077Z,63.45
2023-01-09T23:36:22.966Z,63.57
2023-01-09T23:38:49.954Z,63.49
2023-01-09T23:41:16.750Z,63.66
2023-01-09T23:43:44.542Z,63.53
2023-01-09T23:46:12.574Z,63.75
2023-01-09T23:48:39.542Z,63.74
2023-01-09T23:51:06.631Z,63.64
2023-01-09T23:53:33.471Z,63.66
2023-01-09T23:56:01.256Z,63.68
2023-01-09T23:58:28.067Z,63.77
